sensor_id;sensor_type;location;lat;lon;timestamp;P1;durP1;ratioP1;P2;durP2;ratioP2
67941;SDS011;54731;42.600;23.476;2022-10-17T00:00:42;5.68;;;3.13;;
67941;SDS011;54731;42.600;23.476;2022-10-17T00:03:07;6.67;;;3.53;;
67941;SDS011;54731;42.600;23.476;2022-10-17T00:05:33;7.47;;;3.55;;
67941;SDS011;54731;42.600;23.476;2022-10-17T00:07:58;8.23;;;3.50;;
67941;SDS011;54731;42.600;23.476;2022-10-17T00:10:24;7.50;;;3.50;;
67941;SDS011;54731;42.600;23.476;2022-10-17T00:12:50;6.63;;;3.33;;
67941;SDS011;54731;42.600;23.476;2022-10-17T00:15:16;7.53;;;4.10;;
67941;SDS011;54731;42.600;23.476;2022-10-17T00:17:43;4.63;;;3.40;;
67941;SDS011;54731;42.600;23.476;2022-10-17T00:20:09;5.67;;;3.30;;
67941;SDS011;54731;42.600;23.476;2022-10-17T00:22:34;4.18;;;3.38;;
67941;SDS011;54731;42.600;23.476;2022-10-17T00:25:00;6.87;;;3.70;;
67941;SDS011;54731;42.600;23.476;2022-10-17T00:27:25;5.40;;;3.17;;
67941;SDS011;54731;42.600;23.476;2022-10-17T00:29:50;6.30;;;3.30;;
67941;SDS011;54731;42.600;23.476;2022-10-17T00:32:16;10.83;;;3.90;;
67941;SDS011;54731;42.600;23.476;2022-10-17T00:34:43;6.75;;;3.60;;
67941;SDS011;54731;42.600;23.476;2022-10-17T00:37:08;7.80;;;3.53;;
67941;SDS011;54731;42.600;23.476;2022-10-17T00:39:34;8.85;;;3.88;;
67941;SDS011;54731;42.600;23.476;2022-10-17T00:41:59;11.43;;;4.03;;
67941;SDS011;54731;42.600;23.476;2022-10-17T00:46:53;8.68;;;3.80;;
67941;SDS011;54731;42.600;23.476;2022-10-17T00:49:18;7.53;;;3.77;;
67941;SDS011;54731;42.600;23.476;2022-10-17T00:51:48;7.10;;;4.00;;
67941;SDS011;54731;42.600;23.476;2022-10-17T00:54:16;10.00;;;4.38;;
67941;SDS011;54731;42.600;23.476;2022-10-17T00:56:44;8.48;;;4.03;;
67941;SDS011;54731;42.600;23.476;2022-10-17T00:59:11;9.32;;;4.65;;
67941;SDS011;54731;42.600;23.476;2022-10-17T01:01:42;6.72;;;4.25;;
67941;SDS011;54731;42.600;23.476;2022-10-17T01:04:12;5.65;;;3.80;;
67941;SDS011;54731;42.600;23.476;2022-10-17T01:06:38;7.90;;;3.97;;
67941;SDS011;54731;42.600;23.476;2022-10-17T01:09:03;8.10;;;3.70;;
67941;SDS011;54731;42.600;23.476;2022-10-17T01:11:47;5.78;;;3.95;;
67941;SDS011;54731;42.600;23.476;2022-10-17T01:15:06;6.80;;;3.85;;
67941;SDS011;54731;42.600;23.476;2022-10-17T01:17:11;4.97;;;3.72;;
67941;SDS011;54731;42.600;23.476;2022-10-17T01:22:25;8.43;;;4.03;;
67941;SDS011;54731;42.600;23.476;2022-10-17T01:36:14;7.50;;;3.95;;
67941;SDS011;54731;42.600;23.476;2022-10-17T01:38:56;6.97;;;4.30;;
67941;SDS011;54731;42.600;23.476;2022-10-17T01:44:16;6.20;;;4.07;;
67941;SDS011;54731;42.600;23.476;2022-10-17T01:47:06;7.35;;;3.88;;
67941;SDS011;54731;42.600;23.476;2022-10-17T01:49:36;7.88;;;4.05;;
67941;SDS011;54731;42.600;23.476;2022-10-17T01:52:08;9.20;;;4.25;;
67941;SDS011;54731;42.600;23.476;2022-10-17T01:54:46;7.30;;;3.65;;
67941;SDS011;54731;42.600;23.476;2022-10-17T01:57:29;7.05;;;4.10;;
67941;SDS011;54731;42.600;23.476;2022-10-17T01:59:58;9.27;;;4.45;;
67941;SDS011;54731;42.600;23.476;2022-10-17T02:02:26;7.38;;;3.92;;
67941;SDS011;54731;42.600;23.476;2022-10-17T02:04:52;6.60;;;4.10;;
67941;SDS011;54731;42.600;23.476;2022-10-17T02:07:20;8.20;;;4.55;;
67941;SDS011;54731;42.600;23.476;2022-10-17T02:09:46;7.27;;;4.17;;
67941;SDS011;54731;42.600;23.476;2022-10-17T02:12:18;7.10;;;3.53;;
67941;SDS011;54731;42.600;23.476;2022-10-17T02:17:43;7.50;;;4.30;;
67941;SDS011;54731;42.600;23.476;2022-10-17T02:20:27;5.88;;;4.05;;
67941;SDS011;54731;42.600;23.476;2022-10-17T02:23:03;7.35;;;4.53;;
67941;SDS011;54731;42.600;23.476;2022-10-17T02:28:08;7.35;;;4.07;;
67941;SDS011;54731;42.600;23.476;2022-10-17T02:33:34;6.10;;;3.70;;
67941;SDS011;54731;42.600;23.476;2022-10-17T02:36:07;8.95;;;4.28;;
67941;SDS011;54731;42.600;23.476;2022-10-17T02:38:35;8.17;;;4.47;;
67941;SDS011;54731;42.600;23.476;2022-10-17T02:41:02;12.82;;;4.18;;
67941;SDS011;54731;42.600;23.476;2022-10-17T02:43:29;9.65;;;4.50;;
67941;SDS011;54731;42.600;23.476;2022-10-17T02:45:55;6.77;;;3.93;;
67941;SDS011;54731;42.600;23.476;2022-10-17T02:48:29;7.00;;;3.70;;
67941;SDS011;54731;42.600;23.476;2022-10-17T02:56:19;5.55;;;3.72;;
67941;SDS011;54731;42.600;23.476;2022-10-17T02:58:46;7.32;;;5.45;;
67941;SDS011;54731;42.600;23.476;2022-10-17T03:01:15;7.70;;;5.60;;
67941;SDS011;54731;42.600;23.476;2022-10-17T03:03:41;6.15;;;4.55;;
67941;SDS011;54731;42.600;23.476;2022-10-17T03:06:07;10.50;;;5.10;;
67941;SDS011;54731;42.600;23.476;2022-10-17T03:08:32;6.27;;;4.37;;
67941;SDS011;54731;42.600;23.476;2022-10-17T03:10:57;11.40;;;7.20;;
67941;SDS011;54731;42.600;23.476;2022-10-17T03:13:23;6.27;;;4.27;;
67941;SDS011;54731;42.600;23.476;2022-10-17T03:15:48;8.03;;;5.13;;
67941;SDS011;54731;42.600;23.476;2022-10-17T03:18:13;6.18;;;4.18;;
67941;SDS011;54731;42.600;23.476;2022-10-17T03:20:39;8.60;;;4.47;;
67941;SDS011;54731;42.600;23.476;2022-10-17T03:23:04;7.43;;;5.07;;
67941;SDS011;54731;42.600;23.476;2022-10-17T03:25:29;7.23;;;4.73;;
67941;SDS011;54731;42.600;23.476;2022-10-17T03:27:56;8.93;;;4.77;;
67941;SDS011;54731;42.600;23.476;2022-10-17T03:30:23;9.20;;;4.55;;
67941;SDS011;54731;42.600;23.476;2022-10-17T03:32:48;9.27;;;4.03;;
67941;SDS011;54731;42.600;23.476;2022-10-17T03:35:13;11.27;;;5.27;;
67941;SDS011;54731;42.600;23.476;2022-10-17T03:37:38;9.73;;;5.60;;
67941;SDS011;54731;42.600;23.476;2022-10-17T03:40:04;10.77;;;5.40;;
67941;SDS011;54731;42.600;23.476;2022-10-17T03:42:30;10.60;;;4.75;;
67941;SDS011;54731;42.600;23.476;2022-10-17T03:44:56;8.20;;;4.75;;
67941;SDS011;54731;42.600;23.476;2022-10-17T03:47:21;7.47;;;4.23;;
67941;SDS011;54731;42.600;23.476;2022-10-17T03:49:46;6.30;;;3.97;;
67941;SDS011;54731;42.600;23.476;2022-10-17T03:52:12;7.20;;;4.40;;
67941;SDS011;54731;42.600;23.476;2022-10-17T03:54:38;8.32;;;4.68;;
67941;SDS011;54731;42.600;23.476;2022-10-17T03:57:03;9.07;;;4.27;;
67941;SDS011;54731;42.600;23.476;2022-10-17T03:59:29;7.85;;;4.43;;
67941;SDS011;54731;42.600;23.476;2022-10-17T04:01:54;6.27;;;4.43;;
67941;SDS011;54731;42.600;23.476;2022-10-17T04:04:19;11.00;;;4.30;;
67941;SDS011;54731;42.600;23.476;2022-10-17T04:06:45;9.40;;;5.03;;
67941;SDS011;54731;42.600;23.476;2022-10-17T04:09:10;7.63;;;4.47;;
67941;SDS011;54731;42.600;23.476;2022-10-17T04:11:36;8.50;;;5.17;;
67941;SDS011;54731;42.600;23.476;2022-10-17T04:14:01;9.93;;;5.15;;
67941;SDS011;54731;42.600;23.476;2022-10-17T04:16:26;7.05;;;4.00;;
67941;SDS011;54731;42.600;23.476;2022-10-17T04:18:56;7.90;;;4.60;;
67941;SDS011;54731;42.600;23.476;2022-10-17T04:21:23;8.40;;;4.32;;
67941;SDS011;54731;42.600;23.476;2022-10-17T04:23:56;7.57;;;4.55;;
67941;SDS011;54731;42.600;23.476;2022-10-17T04:26:23;7.03;;;4.20;;
67941;SDS011;54731;42.600;23.476;2022-10-17T04:28:48;8.57;;;4.27;;
67941;SDS011;54731;42.600;23.476;2022-10-17T04:31:14;8.68;;;4.10;;
67941;SDS011;54731;42.600;23.476;2022-10-17T04:33:40;10.17;;;4.50;;
67941;SDS011;54731;42.600;23.476;2022-10-17T04:36:08;7.65;;;4.70;;
67941;SDS011;54731;42.600;23.476;2022-10-17T04:38:35;15.05;;;5.10;;
67941;SDS011;54731;42.600;23.476;2022-10-17T04:41:01;7.33;;;4.33;;
67941;SDS011;54731;42.600;23.476;2022-10-17T04:43:29;8.75;;;5.35;;
67941;SDS011;54731;42.600;23.476;2022-10-17T04:45:58;12.07;;;6.00;;
67941;SDS011;54731;42.600;23.476;2022-10-17T04:48:24;8.75;;;5.28;;
67941;SDS011;54731;42.600;23.476;2022-10-17T04:50:53;8.73;;;4.55;;
67941;SDS011;54731;42.600;23.476;2022-10-17T04:53:19;58.05;;;12.88;;
67941;SDS011;54731;42.600;23.476;2022-10-17T04:55:45;61.42;;;16.98;;
67941;SDS011;54731;42.600;23.476;2022-10-17T04:58:10;64.20;;;14.53;;
67941;SDS011;54731;42.600;23.476;2022-10-17T05:00:36;46.33;;;10.43;;
67941;SDS011;54731;42.600;23.476;2022-10-17T05:03:01;34.20;;;8.60;;
67941;SDS011;54731;42.600;23.476;2022-10-17T05:05:26;23.87;;;7.40;;
67941;SDS011;54731;42.600;23.476;2022-10-17T05:07:52;15.50;;;6.25;;
67941;SDS011;54731;42.600;23.476;2022-10-17T05:10:17;20.17;;;6.27;;
67941;SDS011;54731;42.600;23.476;2022-10-17T05:12:42;14.20;;;6.10;;
67941;SDS011;54731;42.600;23.476;2022-10-17T05:15:08;14.77;;;6.27;;
67941;SDS011;54731;42.600;23.476;2022-10-17T05:17:33;11.57;;;6.00;;
67941;SDS011;54731;42.600;23.476;2022-10-17T05:19:59;8.43;;;5.50;;
67941;SDS011;54731;42.600;23.476;2022-10-17T05:22:24;8.10;;;5.17;;
67941;SDS011;54731;42.600;23.476;2022-10-17T05:24:49;8.17;;;4.73;;
67941;SDS011;54731;42.600;23.476;2022-10-17T05:27:15;7.23;;;4.50;;
67941;SDS011;54731;42.600;23.476;2022-10-17T05:29:40;9.67;;;5.03;;
67941;SDS011;54731;42.600;23.476;2022-10-17T05:32:05;8.40;;;4.63;;
67941;SDS011;54731;42.600;23.476;2022-10-17T05:34:32;10.63;;;6.17;;
67941;SDS011;54731;42.600;23.476;2022-10-17T05:36:57;9.88;;;5.10;;
67941;SDS011;54731;42.600;23.476;2022-10-17T05:39:23;7.27;;;4.30;;
67941;SDS011;54731;42.600;23.476;2022-10-17T05:41:48;8.47;;;5.10;;
67941;SDS011;54731;42.600;23.476;2022-10-17T05:44:13;9.02;;;5.13;;
67941;SDS011;54731;42.600;23.476;2022-10-17T05:46:39;7.43;;;4.45;;
67941;SDS011;54731;42.600;23.476;2022-10-17T05:49:04;9.60;;;5.23;;
67941;SDS011;54731;42.600;23.476;2022-10-17T05:51:31;14.77;;;7.93;;
67941;SDS011;54731;42.600;23.476;2022-10-17T05:53:57;15.35;;;8.00;;
67941;SDS011;54731;42.600;23.476;2022-10-17T05:56:23;16.77;;;9.33;;
67941;SDS011;54731;42.600;23.476;2022-10-17T05:58:48;21.63;;;12.57;;
67941;SDS011;54731;42.600;23.476;2022-10-17T06:01:13;25.07;;;12.93;;
67941;SDS011;54731;42.600;23.476;2022-10-17T06:03:39;29.07;;;12.63;;
67941;SDS011;54731;42.600;23.476;2022-10-17T06:06:05;28.80;;;12.63;;
67941;SDS011;54731;42.600;23.476;2022-10-17T06:08:32;26.42;;;13.10;;
67941;SDS011;54731;42.600;23.476;2022-10-17T06:10:58;27.35;;;13.38;;
67941;SDS011;54731;42.600;23.476;2022-10-17T06:13:24;30.15;;;13.45;;
67941;SDS011;54731;42.600;23.476;2022-10-17T06:15:49;26.17;;;11.03;;
67941;SDS011;54731;42.600;23.476;2022-10-17T06:18:15;22.13;;;11.17;;
67941;SDS011;54731;42.600;23.476;2022-10-17T06:20:40;22.60;;;11.00;;
67941;SDS011;54731;42.600;23.476;2022-10-17T06:23:05;23.40;;;10.67;;
67941;SDS011;54731;42.600;23.476;2022-10-17T06:25:31;27.02;;;11.32;;
67941;SDS011;54731;42.600;23.476;2022-10-17T06:27:57;22.20;;;12.13;;
67941;SDS011;54731;42.600;23.476;2022-10-17T06:30:22;25.57;;;11.83;;
67941;SDS011;54731;42.600;23.476;2022-10-17T06:32:48;17.40;;;10.93;;
67941;SDS011;54731;42.600;23.476;2022-10-17T06:35:13;21.48;;;11.65;;
67941;SDS011;54731;42.600;23.476;2022-10-17T06:37:38;15.67;;;9.60;;
67941;SDS011;54731;42.600;23.476;2022-10-17T06:40:04;20.40;;;9.50;;
67941;SDS011;54731;42.600;23.476;2022-10-17T06:42:30;20.10;;;11.05;;
67941;SDS011;54731;42.600;23.476;2022-10-17T06:44:55;31.63;;;14.07;;
67941;SDS011;54731;42.600;23.476;2022-10-17T06:47:20;29.37;;;15.57;;
67941;SDS011;54731;42.600;23.476;2022-10-17T06:49:46;33.07;;;16.70;;
67941;SDS011;54731;42.600;23.476;2022-10-17T06:52:11;51.40;;;26.00;;
67941;SDS011;54731;42.600;23.476;2022-10-17T06:54:36;43.73;;;19.43;;
67941;SDS011;54731;42.600;23.476;2022-10-17T06:57:02;26.47;;;14.03;;
67941;SDS011;54731;42.600;23.476;2022-10-17T06:59:27;19.83;;;11.45;;
67941;SDS011;54731;42.600;23.476;2022-10-17T07:01:52;20.40;;;11.50;;
67941;SDS011;54731;42.600;23.476;2022-10-17T07:04:18;18.13;;;12.00;;
67941;SDS011;54731;42.600;23.476;2022-10-17T07:06:43;22.47;;;12.17;;
67941;SDS011;54731;42.600;23.476;2022-10-17T07:09:08;16.13;;;10.87;;
67941;SDS011;54731;42.600;23.476;2022-10-17T07:11:34;19.37;;;10.63;;
67941;SDS011;54731;42.600;23.476;2022-10-17T07:13:59;18.53;;;10.93;;
67941;SDS011;54731;42.600;23.476;2022-10-17T07:16:25;20.20;;;11.77;;
67941;SDS011;54731;42.600;23.476;2022-10-17T07:18:51;24.75;;;11.88;;
67941;SDS011;54731;42.600;23.476;2022-10-17T07:21:16;22.97;;;11.97;;
67941;SDS011;54731;42.600;23.476;2022-10-17T07:23:42;18.20;;;11.60;;
67941;SDS011;54731;42.600;23.476;2022-10-17T07:26:12;21.93;;;10.47;;
67941;SDS011;54731;42.600;23.476;2022-10-17T07:28:40;22.38;;;11.70;;
67941;SDS011;54731;42.600;23.476;2022-10-17T07:31:09;21.45;;;11.60;;
67941;SDS011;54731;42.600;23.476;2022-10-17T07:33:37;19.90;;;12.23;;
67941;SDS011;54731;42.600;23.476;2022-10-17T07:36:03;22.73;;;11.52;;
67941;SDS011;54731;42.600;23.476;2022-10-17T07:38:29;20.35;;;12.25;;
67941;SDS011;54731;42.600;23.476;2022-10-17T07:40:59;22.70;;;11.98;;
67941;SDS011;54731;42.600;23.476;2022-10-17T07:43:26;20.75;;;11.57;;
67941;SDS011;54731;42.600;23.476;2022-10-17T07:45:53;23.67;;;11.70;;
67941;SDS011;54731;42.600;23.476;2022-10-17T07:48:19;18.65;;;11.13;;
67941;SDS011;54731;42.600;23.476;2022-10-17T07:50:45;21.92;;;11.80;;
67941;SDS011;54731;42.600;23.476;2022-10-17T07:53:11;25.20;;;11.85;;
67941;SDS011;54731;42.600;23.476;2022-10-17T07:55:37;27.70;;;10.83;;
67941;SDS011;54731;42.600;23.476;2022-10-17T07:58:03;19.80;;;13.45;;
67941;SDS011;54731;42.600;23.476;2022-10-17T08:00:29;21.30;;;12.70;;
67941;SDS011;54731;42.600;23.476;2022-10-17T08:02:54;22.37;;;13.03;;
67941;SDS011;54731;42.600;23.476;2022-10-17T08:05:19;23.90;;;12.67;;
67941;SDS011;54731;42.600;23.476;2022-10-17T08:07:45;22.57;;;12.77;;
67941;SDS011;54731;42.600;23.476;2022-10-17T08:10:11;24.80;;;12.02;;
67941;SDS011;54731;42.600;23.476;2022-10-17T08:12:37;18.25;;;10.63;;
67941;SDS011;54731;42.600;23.476;2022-10-17T08:15:03;18.57;;;10.97;;
67941;SDS011;54731;42.600;23.476;2022-10-17T08:17:30;16.05;;;9.52;;
67941;SDS011;54731;42.600;23.476;2022-10-17T08:19:55;17.07;;;9.60;;
67941;SDS011;54731;42.600;23.476;2022-10-17T08:22:20;16.83;;;9.40;;
67941;SDS011;54731;42.600;23.476;2022-10-17T08:24:46;17.70;;;8.73;;
67941;SDS011;54731;42.600;23.476;2022-10-17T08:27:11;17.90;;;9.67;;
67941;SDS011;54731;42.600;23.476;2022-10-17T08:29:37;18.63;;;9.17;;
67941;SDS011;54731;42.600;23.476;2022-10-17T08:32:03;12.27;;;8.20;;
67941;SDS011;54731;42.600;23.476;2022-10-17T08:34:29;13.50;;;7.38;;
67941;SDS011;54731;42.600;23.476;2022-10-17T08:36:55;12.00;;;7.27;;
67941;SDS011;54731;42.600;23.476;2022-10-17T08:39:20;16.13;;;7.90;;
67941;SDS011;54731;42.600;23.476;2022-10-17T08:41:50;12.37;;;7.17;;
67941;SDS011;54731;42.600;23.476;2022-10-17T08:47:08;11.10;;;6.50;;
67941;SDS011;54731;42.600;23.476;2022-10-17T08:49:43;8.48;;;4.97;;
67941;SDS011;54731;42.600;23.476;2022-10-17T08:54:52;7.57;;;3.93;;
67941;SDS011;54731;42.600;23.476;2022-10-17T08:57:18;13.10;;;5.55;;
67941;SDS011;54731;42.600;23.476;2022-10-17T08:59:43;7.60;;;4.15;;
67941;SDS011;54731;42.600;23.476;2022-10-17T09:02:19;8.98;;;3.40;;
67941;SDS011;54731;42.600;23.476;2022-10-17T09:10:49;8.75;;;3.80;;
67941;SDS011;54731;42.600;23.476;2022-10-17T09:13:31;5.63;;;3.33;;
67941;SDS011;54731;42.600;23.476;2022-10-17T09:18:53;4.90;;;2.50;;
67941;SDS011;54731;42.600;23.476;2022-10-17T09:21:28;6.20;;;2.63;;
67941;SDS011;54731;42.600;23.476;2022-10-17T09:24:04;5.35;;;2.85;;
67941;SDS011;54731;42.600;23.476;2022-10-17T09:26:55;6.82;;;3.33;;
67941;SDS011;54731;42.600;23.476;2022-10-17T09:29:21;6.63;;;3.60;;
67941;SDS011;54731;42.600;23.476;2022-10-17T09:32:02;7.85;;;3.25;;
67941;SDS011;54731;42.600;23.476;2022-10-17T09:34:32;7.35;;;3.22;;
67941;SDS011;54731;42.600;23.476;2022-10-17T09:36:58;5.13;;;2.47;;
67941;SDS011;54731;42.600;23.476;2022-10-17T09:39:25;5.18;;;3.05;;
67941;SDS011;54731;42.600;23.476;2022-10-17T09:41:54;4.68;;;2.63;;
67941;SDS011;54731;42.600;23.476;2022-10-17T09:49:45;2.85;;;1.90;;
67941;SDS011;54731;42.600;23.476;2022-10-17T09:52:19;3.53;;;2.20;;
67941;SDS011;54731;42.600;23.476;2022-10-17T09:55:00;3.95;;;2.40;;
67941;SDS011;54731;42.600;23.476;2022-10-17T09:57:30;5.55;;;2.25;;
67941;SDS011;54731;42.600;23.476;2022-10-17T10:00:26;7.47;;;2.70;;
67941;SDS011;54731;42.600;23.476;2022-10-17T10:03:10;4.40;;;2.70;;
67941;SDS011;54731;42.600;23.476;2022-10-17T10:05:56;5.15;;;2.63;;
67941;SDS011;54731;42.600;23.476;2022-10-17T10:08:26;6.30;;;2.90;;
67941;SDS011;54731;42.600;23.476;2022-10-17T10:10:58;8.48;;;3.00;;
67941;SDS011;54731;42.600;23.476;2022-10-17T10:13:25;4.45;;;2.70;;
67941;SDS011;54731;42.600;23.476;2022-10-17T10:15:51;5.40;;;2.80;;
67941;SDS011;54731;42.600;23.476;2022-10-17T10:18:35;6.53;;;3.03;;
67941;SDS011;54731;42.600;23.476;2022-10-17T10:23:34;5.88;;;2.83;;
67941;SDS011;54731;42.600;23.476;2022-10-17T10:26:01;5.30;;;3.17;;
67941;SDS011;54731;42.600;23.476;2022-10-17T10:28:37;5.80;;;2.53;;
67941;SDS011;54731;42.600;23.476;2022-10-17T10:31:04;4.53;;;2.70;;
67941;SDS011;54731;42.600;23.476;2022-10-17T10:33:32;6.15;;;3.22;;
67941;SDS011;54731;42.600;23.476;2022-10-17T10:36:00;8.35;;;2.78;;
67941;SDS011;54731;42.600;23.476;2022-10-17T10:38:29;5.32;;;2.67;;
67941;SDS011;54731;42.600;23.476;2022-10-17T10:41:00;4.03;;;2.40;;
67941;SDS011;54731;42.600;23.476;2022-10-17T10:46:02;5.25;;;2.38;;
67941;SDS011;54731;42.600;23.476;2022-10-17T10:48:33;4.00;;;2.35;;
67941;SDS011;54731;42.600;23.476;2022-10-17T10:51:20;4.63;;;2.45;;
67941;SDS011;54731;42.600;23.476;2022-10-17T10:54:07;4.10;;;2.57;;
67941;SDS011;54731;42.600;23.476;2022-10-17T10:56:48;4.35;;;2.75;;
67941;SDS011;54731;42.600;23.476;2022-10-17T11:04:54;4.97;;;2.30;;
67941;SDS011;54731;42.600;23.476;2022-10-17T11:09:53;3.37;;;2.10;;
67941;SDS011;54731;42.600;23.476;2022-10-17T11:15:26;6.20;;;2.55;;
67941;SDS011;54731;42.600;23.476;2022-10-17T11:18:34;5.05;;;2.53;;
67941;SDS011;54731;42.600;23.476;2022-10-17T11:24:08;6.78;;;2.63;;
67941;SDS011;54731;42.600;23.476;2022-10-17T11:26:55;6.47;;;2.45;;
67941;SDS011;54731;42.600;23.476;2022-10-17T11:29:28;3.55;;;2.33;;
67941;SDS011;54731;42.600;23.476;2022-10-17T11:31:55;3.70;;;2.00;;
67941;SDS011;54731;42.600;23.476;2022-10-17T11:34:42;4.22;;;2.03;;
67941;SDS011;54731;42.600;23.476;2022-10-17T11:37:16;5.68;;;2.97;;
67941;SDS011;54731;42.600;23.476;2022-10-17T11:44:48;5.78;;;2.40;;
67941;SDS011;54731;42.600;23.476;2022-10-17T11:50:15;5.05;;;2.70;;
67941;SDS011;54731;42.600;23.476;2022-10-17T11:52:52;3.30;;;2.30;;
67941;SDS011;54731;42.600;23.476;2022-10-17T11:55:22;3.85;;;2.45;;
67941;SDS011;54731;42.600;23.476;2022-10-17T12:05:48;5.35;;;2.60;;
67941;SDS011;54731;42.600;23.476;2022-10-17T12:08:22;3.95;;;2.20;;
67941;SDS011;54731;42.600;23.476;2022-10-17T12:11:10;5.22;;;2.63;;
67941;SDS011;54731;42.600;23.476;2022-10-17T12:18:44;5.50;;;2.90;;
67941;SDS011;54731;42.600;23.476;2022-10-17T12:21:15;3.27;;;2.50;;
67941;SDS011;54731;42.600;23.476;2022-10-17T12:23:42;4.15;;;2.42;;
67941;SDS011;54731;42.600;23.476;2022-10-17T12:26:24;5.73;;;2.67;;
67941;SDS011;54731;42.600;23.476;2022-10-17T12:28:50;3.40;;;2.40;;
67941;SDS011;54731;42.600;23.476;2022-10-17T12:33:48;10.67;;;3.53;;
67941;SDS011;54731;42.600;23.476;2022-10-17T12:38:46;12.73;;;2.60;;
67941;SDS011;54731;42.600;23.476;2022-10-17T12:41:13;4.50;;;2.17;;
67941;SDS011;54731;42.600;23.476;2022-10-17T12:46:07;5.50;;;2.53;;
67941;SDS011;54731;42.600;23.476;2022-10-17T12:50:59;3.80;;;1.80;;
67941;SDS011;54731;42.600;23.476;2022-10-17T12:54:20;4.70;;;2.30;;
67941;SDS011;54731;42.600;23.476;2022-10-17T12:56:29;4.93;;;2.00;;
67941;SDS011;54731;42.600;23.476;2022-10-17T12:58:58;4.28;;;2.00;;
67941;SDS011;54731;42.600;23.476;2022-10-17T13:01:28;2.78;;;1.88;;
67941;SDS011;54731;42.600;23.476;2022-10-17T13:03:55;2.30;;;1.60;;
67941;SDS011;54731;42.600;23.476;2022-10-17T13:06:26;3.30;;;1.80;;
67941;SDS011;54731;42.600;23.476;2022-10-17T13:08:57;3.85;;;1.73;;
67941;SDS011;54731;42.600;23.476;2022-10-17T13:11:26;2.75;;;1.30;;
67941;SDS011;54731;42.600;23.476;2022-10-17T13:13:54;3.08;;;2.03;;
67941;SDS011;54731;42.600;23.476;2022-10-17T13:18:59;3.20;;;1.70;;
67941;SDS011;54731;42.600;23.476;2022-10-17T13:21:25;5.63;;;2.60;;
67941;SDS011;54731;42.600;23.476;2022-10-17T13:23:51;5.03;;;1.85;;
67941;SDS011;54731;42.600;23.476;2022-10-17T13:26:18;6.97;;;1.90;;
67941;SDS011;54731;42.600;23.476;2022-10-17T13:28:45;3.80;;;1.77;;
67941;SDS011;54731;42.600;23.476;2022-10-17T13:31:30;2.83;;;1.70;;
67941;SDS011;54731;42.600;23.476;2022-10-17T13:33:59;4.18;;;2.30;;
67941;SDS011;54731;42.600;23.476;2022-10-17T13:36:26;4.13;;;2.23;;
67941;SDS011;54731;42.600;23.476;2022-10-17T13:38:54;4.93;;;1.52;;
67941;SDS011;54731;42.600;23.476;2022-10-17T13:41:26;4.40;;;2.00;;
67941;SDS011;54731;42.600;23.476;2022-10-17T13:43:53;2.83;;;1.88;;
67941;SDS011;54731;42.600;23.476;2022-10-17T13:46:25;3.03;;;1.70;;
67941;SDS011;54731;42.600;23.476;2022-10-17T13:48:56;2.10;;;1.60;;
67941;SDS011;54731;42.600;23.476;2022-10-17T13:51:23;3.10;;;2.22;;
67941;SDS011;54731;42.600;23.476;2022-10-17T13:53:50;2.65;;;2.00;;
67941;SDS011;54731;42.600;23.476;2022-10-17T13:56:16;9.93;;;6.07;;
67941;SDS011;54731;42.600;23.476;2022-10-17T13:58:46;11.02;;;6.35;;
67941;SDS011;54731;42.600;23.476;2022-10-17T14:01:13;8.88;;;4.68;;
67941;SDS011;54731;42.600;23.476;2022-10-17T14:03:45;3.67;;;2.43;;
67941;SDS011;54731;42.600;23.476;2022-10-17T14:06:12;7.05;;;2.38;;
67941;SDS011;54731;42.600;23.476;2022-10-17T14:11:30;6.47;;;1.98;;
67941;SDS011;54731;42.600;23.476;2022-10-17T14:13:56;4.60;;;1.75;;
67941;SDS011;54731;42.600;23.476;2022-10-17T14:16:23;2.90;;;1.60;;
67941;SDS011;54731;42.600;23.476;2022-10-17T14:18:50;18.42;;;14.52;;
67941;SDS011;54731;42.600;23.476;2022-10-17T14:21:18;11.05;;;3.05;;
67941;SDS011;54731;42.600;23.476;2022-10-17T14:23:44;20.17;;;17.60;;
67941;SDS011;54731;42.600;23.476;2022-10-17T14:26:11;55.57;;;49.23;;
67941;SDS011;54731;42.600;23.476;2022-10-17T14:28:43;54.63;;;45.22;;
67941;SDS011;54731;42.600;23.476;2022-10-17T14:31:31;46.78;;;41.20;;
67941;SDS011;54731;42.600;23.476;2022-10-17T14:33:57;278.88;;;199.52;;
67941;SDS011;54731;42.600;23.476;2022-10-17T14:36:34;321.58;;;223.98;;
67941;SDS011;54731;42.600;23.476;2022-10-17T14:39:02;580.90;;;485.63;;
67941;SDS011;54731;42.600;23.476;2022-10-17T14:41:31;544.00;;;468.10;;
67941;SDS011;54731;42.600;23.476;2022-10-17T14:44:00;609.33;;;470.77;;
67941;SDS011;54731;42.600;23.476;2022-10-17T14:46:29;430.70;;;329.85;;
67941;SDS011;54731;42.600;23.476;2022-10-17T14:49:02;312.13;;;273.85;;
67941;SDS011;54731;42.600;23.476;2022-10-17T14:51:31;479.73;;;352.43;;
67941;SDS011;54731;42.600;23.476;2022-10-17T14:54:18;107.38;;;77.00;;
67941;SDS011;54731;42.600;23.476;2022-10-17T14:56:50;39.88;;;30.23;;
67941;SDS011;54731;42.600;23.476;2022-10-17T14:59:16;74.63;;;50.08;;
67941;SDS011;54731;42.600;23.476;2022-10-17T15:01:45;32.63;;;22.25;;
67941;SDS011;54731;42.600;23.476;2022-10-17T15:04:11;88.80;;;57.22;;
67941;SDS011;54731;42.600;23.476;2022-10-17T15:06:36;135.87;;;107.97;;
67941;SDS011;54731;42.600;23.476;2022-10-17T15:09:02;37.13;;;33.43;;
67941;SDS011;54731;42.600;23.476;2022-10-17T15:11:27;25.20;;;22.98;;
67941;SDS011;54731;42.600;23.476;2022-10-17T15:13:53;15.27;;;12.33;;
67941;SDS011;54731;42.600;23.476;2022-10-17T15:16:19;48.63;;;26.02;;
67941;SDS011;54731;42.600;23.476;2022-10-17T15:18:47;24.30;;;15.00;;
67941;SDS011;54731;42.600;23.476;2022-10-17T15:21:14;6.35;;;5.22;;
67941;SDS011;54731;42.600;23.476;2022-10-17T15:23:40;7.07;;;5.70;;
67941;SDS011;54731;42.600;23.476;2022-10-17T15:26:17;6.97;;;3.63;;
67941;SDS011;54731;42.600;23.476;2022-10-17T15:28:44;12.68;;;4.18;;
67941;SDS011;54731;42.600;23.476;2022-10-17T15:31:11;12.05;;;4.95;;
67941;SDS011;54731;42.600;23.476;2022-10-17T15:33:41;5.03;;;3.22;;
67941;SDS011;54731;42.600;23.476;2022-10-17T15:36:26;6.80;;;4.53;;
67941;SDS011;54731;42.600;23.476;2022-10-17T15:38:54;6.22;;;3.80;;
67941;SDS011;54731;42.600;23.476;2022-10-17T15:41:22;9.35;;;6.60;;
67941;SDS011;54731;42.600;23.476;2022-10-17T15:43:49;117.40;;;39.75;;
67941;SDS011;54731;42.600;23.476;2022-10-17T15:46:18;36.10;;;17.90;;
67941;SDS011;54731;42.600;23.476;2022-10-17T15:48:48;37.40;;;18.63;;
67941;SDS011;54731;42.600;23.476;2022-10-17T15:51:14;70.60;;;40.13;;
67941;SDS011;54731;42.600;23.476;2022-10-17T15:53:39;104.60;;;57.00;;
67941;SDS011;54731;42.600;23.476;2022-10-17T15:56:05;24.17;;;11.97;;
67941;SDS011;54731;42.600;23.476;2022-10-17T15:58:36;133.48;;;74.47;;
67941;SDS011;54731;42.600;23.476;2022-10-17T16:01:03;31.05;;;19.80;;
67941;SDS011;54731;42.600;23.476;2022-10-17T16:03:29;14.65;;;8.27;;
67941;SDS011;54731;42.600;23.476;2022-10-17T16:05:55;29.45;;;18.60;;
67941;SDS011;54731;42.600;23.476;2022-10-17T16:08:20;22.98;;;16.05;;
67941;SDS011;54731;42.600;23.476;2022-10-17T16:10:46;11.57;;;7.27;;
67941;SDS011;54731;42.600;23.476;2022-10-17T16:13:21;12.90;;;5.70;;
67941;SDS011;54731;42.600;23.476;2022-10-17T16:15:48;16.88;;;6.15;;
67941;SDS011;54731;42.600;23.476;2022-10-17T16:18:13;14.20;;;9.27;;
67941;SDS011;54731;42.600;23.476;2022-10-17T16:20:39;10.57;;;5.77;;
67941;SDS011;54731;42.600;23.476;2022-10-17T16:23:04;7.63;;;4.30;;